Kezdőlap
METAR-TAF:

METAR-TAF

Repülőterek :

Aizawl, India

földrajzi szélesség: 23-50-18N, földrajzi hosszúság: 92-37-13E, magasság: 405 m

Jelenlegi meteorológiai megfigyelések

A jelentés 31 perccel ezelõtt készült, 03:30 UTC
Északi szél 3 kt
Hőmérséklet 30°C
Páratartalom 43%
Légköri nyomás 1015 hPa
Látótávolság: 5000 m
Kevés felhő 1800 lábon
Szórványos felhőzet 10000 lábon
Száraz légköri homály,

METAR: VELP 130330Z 36003KT 5000 HZ FEW018 SCT100 30/16 Q1015 NOSIG

Idő: 09:31 (04:01 UTC)

Előrejelzés

A jelentés 2 órával és 1 perccel ezelõtt készült, 02:00 UTC
Az előrejelzés 13-én 03 óra UTC és 13-én 12 óra UTC között érvényes
Északkeleti szél 4 kt
Látótávolság: 4000 m
Kevés felhő 10000 lábon
Száraz légköri homály,

TAF: VELP 130200Z 1303/1312 04004KT 4000 HZ FEW100

Meteorológiai megfigyelések és előrejelzések több, mint 4000 repülőtéren (METAR és TAF jelentéseket).

A térképen piros és sárga pontok jelzik az elérhető meteorológiai állomásokat.

Mozgassa az egeret a pont fölött, hogy megjelenjen az állomás neve.

Azután kattintson az időjárási megfigyelések és előrejelzések megtekintéséhez.

A térkép megváltoztatása: kattintson a fekete keresztel jelölt zöld gombra ráközelítéshez, a vonallal jelölt zöld gombra távolításhoz, vagy a zöld nyilakra a szomszédos térképek eléréséhez.


METAR-TAF: